sensor_id;sensor_type;location;lat;lon;timestamp;P1;durP1;ratioP1;P2;durP2;ratioP2
13309;SDS011;6723;48.256;16.402;2023-05-29T00:01:33;5.63;;;4.07;;
13309;SDS011;6723;48.256;16.402;2023-05-29T00:04:01;5.13;;;4.27;;
13309;SDS011;6723;48.256;16.402;2023-05-29T00:06:27;6.80;;;4.40;;
13309;SDS011;6723;48.256;16.402;2023-05-29T00:08:52;8.27;;;4.37;;
13309;SDS011;6723;48.256;16.402;2023-05-29T00:11:18;6.30;;;4.07;;
13309;SDS011;6723;48.256;16.402;2023-05-29T00:13:45;4.53;;;3.27;;
13309;SDS011;6723;48.256;16.402;2023-05-29T00:16:11;7.03;;;3.80;;
13309;SDS011;6723;48.256;16.402;2023-05-29T00:18:37;6.17;;;4.07;;
13309;SDS011;6723;48.256;16.402;2023-05-29T00:21:10;8.33;;;3.67;;
13309;SDS011;6723;48.256;16.402;2023-05-29T00:23:38;6.07;;;3.90;;
13309;SDS011;6723;48.256;16.402;2023-05-29T00:26:04;9.00;;;4.10;;
13309;SDS011;6723;48.256;16.402;2023-05-29T00:28:29;7.37;;;4.87;;
13309;SDS011;6723;48.256;16.402;2023-05-29T00:30:55;6.93;;;4.37;;
13309;SDS011;6723;48.256;16.402;2023-05-29T00:33:21;8.13;;;4.87;;
13309;SDS011;6723;48.256;16.402;2023-05-29T00:35:47;7.37;;;4.57;;
13309;SDS011;6723;48.256;16.402;2023-05-29T00:38:13;8.97;;;5.03;;
13309;SDS011;6723;48.256;16.402;2023-05-29T00:40:41;9.67;;;4.10;;
13309;SDS011;6723;48.256;16.402;2023-05-29T00:43:07;6.10;;;4.17;;
13309;SDS011;6723;48.256;16.402;2023-05-29T00:45:33;9.43;;;4.43;;
13309;SDS011;6723;48.256;16.402;2023-05-29T00:48:02;4.90;;;3.60;;
13309;SDS011;6723;48.256;16.402;2023-05-29T00:50:29;7.53;;;3.80;;
13309;SDS011;6723;48.256;16.402;2023-05-29T00:52:55;7.63;;;3.97;;
13309;SDS011;6723;48.256;16.402;2023-05-29T00:55:22;10.43;;;3.97;;
13309;SDS011;6723;48.256;16.402;2023-05-29T00:57:48;6.10;;;3.93;;
13309;SDS011;6723;48.256;16.402;2023-05-29T01:00:14;6.00;;;3.90;;
13309;SDS011;6723;48.256;16.402;2023-05-29T01:02:42;5.97;;;3.30;;
13309;SDS011;6723;48.256;16.402;2023-05-29T01:05:12;5.37;;;3.63;;
13309;SDS011;6723;48.256;16.402;2023-05-29T01:07:40;4.40;;;3.40;;
13309;SDS011;6723;48.256;16.402;2023-05-29T01:10:07;4.57;;;3.40;;
13309;SDS011;6723;48.256;16.402;2023-05-29T01:12:40;8.90;;;3.60;;
13309;SDS011;6723;48.256;16.402;2023-05-29T01:15:18;8.20;;;3.50;;
13309;SDS011;6723;48.256;16.402;2023-05-29T01:29:12;7.40;;;3.67;;
13309;SDS011;6723;48.256;16.402;2023-05-29T01:31:42;5.33;;;3.63;;
13309;SDS011;6723;48.256;16.402;2023-05-29T01:34:11;7.00;;;3.90;;
13309;SDS011;6723;48.256;16.402;2023-05-29T01:36:37;5.23;;;3.60;;
13309;SDS011;6723;48.256;16.402;2023-05-29T01:39:02;7.23;;;4.00;;
13309;SDS011;6723;48.256;16.402;2023-05-29T01:41:29;6.27;;;3.67;;
13309;SDS011;6723;48.256;16.402;2023-05-29T01:43:57;5.83;;;3.77;;
13309;SDS011;6723;48.256;16.402;2023-05-29T01:46:24;4.57;;;3.70;;
13309;SDS011;6723;48.256;16.402;2023-05-29T01:48:50;7.60;;;3.37;;
13309;SDS011;6723;48.256;16.402;2023-05-29T01:51:18;8.57;;;4.00;;
13309;SDS011;6723;48.256;16.402;2023-05-29T01:53:43;4.73;;;3.50;;
13309;SDS011;6723;48.256;16.402;2023-05-29T01:56:09;6.03;;;4.07;;
13309;SDS011;6723;48.256;16.402;2023-05-29T01:58:35;6.23;;;3.80;;
13309;SDS011;6723;48.256;16.402;2023-05-29T02:01:03;8.00;;;4.23;;
13309;SDS011;6723;48.256;16.402;2023-05-29T02:03:31;6.60;;;4.17;;
13309;SDS011;6723;48.256;16.402;2023-05-29T02:05:58;5.43;;;3.53;;
13309;SDS011;6723;48.256;16.402;2023-05-29T02:08:25;7.10;;;3.53;;
13309;SDS011;6723;48.256;16.402;2023-05-29T02:10:52;5.00;;;3.57;;
13309;SDS011;6723;48.256;16.402;2023-05-29T02:13:17;5.87;;;4.03;;
13309;SDS011;6723;48.256;16.402;2023-05-29T02:15:43;5.07;;;3.63;;
13309;SDS011;6723;48.256;16.402;2023-05-29T02:18:10;5.27;;;3.90;;
13309;SDS011;6723;48.256;16.402;2023-05-29T02:20:38;5.43;;;3.93;;
13309;SDS011;6723;48.256;16.402;2023-05-29T02:23:04;7.13;;;3.83;;
13309;SDS011;6723;48.256;16.402;2023-05-29T02:25:30;8.03;;;4.27;;
13309;SDS011;6723;48.256;16.402;2023-05-29T02:27:56;6.97;;;4.03;;
13309;SDS011;6723;48.256;16.402;2023-05-29T02:30:22;6.47;;;3.97;;
13309;SDS011;6723;48.256;16.402;2023-05-29T02:32:48;6.10;;;3.73;;
13309;SDS011;6723;48.256;16.402;2023-05-29T02:35:13;6.33;;;3.80;;
13309;SDS011;6723;48.256;16.402;2023-05-29T02:37:40;4.37;;;3.70;;
13309;SDS011;6723;48.256;16.402;2023-05-29T02:40:06;8.07;;;4.27;;
13309;SDS011;6723;48.256;16.402;2023-05-29T02:42:35;6.13;;;4.27;;
13309;SDS011;6723;48.256;16.402;2023-05-29T02:45:01;6.60;;;4.10;;
13309;SDS011;6723;48.256;16.402;2023-05-29T02:47:28;5.80;;;3.80;;
13309;SDS011;6723;48.256;16.402;2023-05-29T02:49:53;5.97;;;3.83;;
13309;SDS011;6723;48.256;16.402;2023-05-29T02:52:19;7.97;;;4.07;;
13309;SDS011;6723;48.256;16.402;2023-05-29T02:54:45;7.83;;;4.00;;
13309;SDS011;6723;48.256;16.402;2023-05-29T02:57:11;6.37;;;4.63;;
13309;SDS011;6723;48.256;16.402;2023-05-29T02:59:37;7.40;;;4.03;;
13309;SDS011;6723;48.256;16.402;2023-05-29T03:02:03;7.97;;;4.40;;
13309;SDS011;6723;48.256;16.402;2023-05-29T03:04:29;6.80;;;3.87;;
13309;SDS011;6723;48.256;16.402;2023-05-29T03:06:54;8.17;;;4.10;;
13309;SDS011;6723;48.256;16.402;2023-05-29T03:09:20;6.67;;;4.00;;
13309;SDS011;6723;48.256;16.402;2023-05-29T03:11:47;9.20;;;4.10;;
13309;SDS011;6723;48.256;16.402;2023-05-29T03:14:16;6.90;;;3.70;;
13309;SDS011;6723;48.256;16.402;2023-05-29T03:16:43;7.33;;;4.20;;
13309;SDS011;6723;48.256;16.402;2023-05-29T03:19:09;7.87;;;3.90;;
13309;SDS011;6723;48.256;16.402;2023-05-29T03:21:35;9.13;;;4.37;;
13309;SDS011;6723;48.256;16.402;2023-05-29T03:24:01;6.37;;;3.97;;
13309;SDS011;6723;48.256;16.402;2023-05-29T03:26:30;7.93;;;4.30;;
13309;SDS011;6723;48.256;16.402;2023-05-29T03:28:56;8.53;;;4.13;;
13309;SDS011;6723;48.256;16.402;2023-05-29T03:31:22;9.23;;;4.23;;
13309;SDS011;6723;48.256;16.402;2023-05-29T03:33:48;6.17;;;4.03;;
13309;SDS011;6723;48.256;16.402;2023-05-29T03:36:14;7.27;;;4.17;;
13309;SDS011;6723;48.256;16.402;2023-05-29T03:38:42;5.90;;;4.27;;
13309;SDS011;6723;48.256;16.402;2023-05-29T03:41:09;5.83;;;4.50;;
13309;SDS011;6723;48.256;16.402;2023-05-29T03:43:35;6.87;;;4.60;;
13309;SDS011;6723;48.256;16.402;2023-05-29T03:46:01;6.53;;;4.23;;
13309;SDS011;6723;48.256;16.402;2023-05-29T03:48:27;5.97;;;4.03;;
13309;SDS011;6723;48.256;16.402;2023-05-29T03:50:53;7.00;;;3.70;;
13309;SDS011;6723;48.256;16.402;2023-05-29T03:53:19;6.90;;;4.40;;
13309;SDS011;6723;48.256;16.402;2023-05-29T03:55:44;7.37;;;4.30;;
13309;SDS011;6723;48.256;16.402;2023-05-29T03:58:10;8.23;;;4.20;;
13309;SDS011;6723;48.256;16.402;2023-05-29T04:00:37;7.37;;;4.20;;
13309;SDS011;6723;48.256;16.402;2023-05-29T04:03:05;9.67;;;4.77;;
13309;SDS011;6723;48.256;16.402;2023-05-29T04:05:31;7.03;;;4.23;;
13309;SDS011;6723;48.256;16.402;2023-05-29T04:07:57;6.47;;;4.60;;
13309;SDS011;6723;48.256;16.402;2023-05-29T04:10:23;7.43;;;5.07;;
13309;SDS011;6723;48.256;16.402;2023-05-29T04:12:49;8.90;;;4.70;;
13309;SDS011;6723;48.256;16.402;2023-05-29T04:15:16;6.37;;;4.50;;
13309;SDS011;6723;48.256;16.402;2023-05-29T04:17:41;7.07;;;4.37;;
13309;SDS011;6723;48.256;16.402;2023-05-29T04:20:07;9.20;;;4.53;;
13309;SDS011;6723;48.256;16.402;2023-05-29T04:22:37;8.13;;;4.90;;
13309;SDS011;6723;48.256;16.402;2023-05-29T04:25:04;7.70;;;4.00;;
13309;SDS011;6723;48.256;16.402;2023-05-29T04:27:30;10.77;;;4.70;;
13309;SDS011;6723;48.256;16.402;2023-05-29T04:30:06;8.27;;;5.13;;
13309;SDS011;6723;48.256;16.402;2023-05-29T04:32:33;6.10;;;4.50;;
13309;SDS011;6723;48.256;16.402;2023-05-29T04:35:01;9.70;;;5.10;;
13309;SDS011;6723;48.256;16.402;2023-05-29T04:37:30;6.67;;;4.80;;
13309;SDS011;6723;48.256;16.402;2023-05-29T04:40:05;8.97;;;4.50;;
13309;SDS011;6723;48.256;16.402;2023-05-29T04:42:45;8.30;;;4.80;;
13309;SDS011;6723;48.256;16.402;2023-05-29T04:45:11;12.17;;;4.90;;
13309;SDS011;6723;48.256;16.402;2023-05-29T04:47:37;8.37;;;5.13;;
13309;SDS011;6723;48.256;16.402;2023-05-29T04:50:09;8.97;;;5.63;;
13309;SDS011;6723;48.256;16.402;2023-05-29T04:52:36;8.43;;;5.03;;
13309;SDS011;6723;48.256;16.402;2023-05-29T04:55:03;7.00;;;4.60;;
13309;SDS011;6723;48.256;16.402;2023-05-29T04:57:30;9.73;;;4.47;;
13309;SDS011;6723;48.256;16.402;2023-05-29T04:59:56;9.87;;;4.50;;
13309;SDS011;6723;48.256;16.402;2023-05-29T05:02:22;9.60;;;5.03;;
13309;SDS011;6723;48.256;16.402;2023-05-29T05:04:47;6.10;;;4.57;;
13309;SDS011;6723;48.256;16.402;2023-05-29T05:07:13;8.53;;;4.57;;
13309;SDS011;6723;48.256;16.402;2023-05-29T05:09:41;6.90;;;4.10;;
13309;SDS011;6723;48.256;16.402;2023-05-29T05:12:07;8.63;;;5.23;;
13309;SDS011;6723;48.256;16.402;2023-05-29T05:14:34;12.97;;;4.87;;
13309;SDS011;6723;48.256;16.402;2023-05-29T05:16:59;7.77;;;4.33;;
13309;SDS011;6723;48.256;16.402;2023-05-29T05:19:25;7.53;;;4.47;;
13309;SDS011;6723;48.256;16.402;2023-05-29T05:21:51;6.20;;;4.60;;
13309;SDS011;6723;48.256;16.402;2023-05-29T05:24:17;6.63;;;4.47;;
13309;SDS011;6723;48.256;16.402;2023-05-29T05:26:43;5.60;;;4.30;;
13309;SDS011;6723;48.256;16.402;2023-05-29T05:29:08;8.37;;;4.30;;
13309;SDS011;6723;48.256;16.402;2023-05-29T05:31:34;6.00;;;4.23;;
13309;SDS011;6723;48.256;16.402;2023-05-29T05:34:00;6.37;;;4.33;;
13309;SDS011;6723;48.256;16.402;2023-05-29T05:36:25;5.50;;;4.13;;
13309;SDS011;6723;48.256;16.402;2023-05-29T05:38:51;5.97;;;4.13;;
13309;SDS011;6723;48.256;16.402;2023-05-29T05:41:17;8.77;;;4.00;;
13309;SDS011;6723;48.256;16.402;2023-05-29T05:43:43;6.13;;;3.97;;
13309;SDS011;6723;48.256;16.402;2023-05-29T05:46:08;8.93;;;4.33;;
13309;SDS011;6723;48.256;16.402;2023-05-29T05:48:34;5.13;;;4.30;;
13309;SDS011;6723;48.256;16.402;2023-05-29T05:51:00;4.83;;;3.90;;
13309;SDS011;6723;48.256;16.402;2023-05-29T05:53:26;7.63;;;4.30;;
13309;SDS011;6723;48.256;16.402;2023-05-29T05:55:51;7.57;;;4.23;;
13309;SDS011;6723;48.256;16.402;2023-05-29T05:58:17;5.70;;;4.10;;
13309;SDS011;6723;48.256;16.402;2023-05-29T06:00:43;8.27;;;4.13;;
13309;SDS011;6723;48.256;16.402;2023-05-29T06:03:08;4.87;;;3.77;;
13309;SDS011;6723;48.256;16.402;2023-05-29T06:08:19;6.53;;;3.83;;
13309;SDS011;6723;48.256;16.402;2023-05-29T06:10:45;7.13;;;4.50;;
13309;SDS011;6723;48.256;16.402;2023-05-29T06:13:11;6.93;;;4.07;;
13309;SDS011;6723;48.256;16.402;2023-05-29T06:15:37;11.17;;;4.00;;
13309;SDS011;6723;48.256;16.402;2023-05-29T06:18:05;6.63;;;4.50;;
13309;SDS011;6723;48.256;16.402;2023-05-29T06:20:31;7.53;;;4.30;;
13309;SDS011;6723;48.256;16.402;2023-05-29T06:22:57;5.57;;;4.23;;
13309;SDS011;6723;48.256;16.402;2023-05-29T06:25:23;7.70;;;4.47;;
13309;SDS011;6723;48.256;16.402;2023-05-29T06:27:57;7.20;;;3.87;;
13309;SDS011;6723;48.256;16.402;2023-05-29T06:30:39;7.33;;;3.90;;
13309;SDS011;6723;48.256;16.402;2023-05-29T06:33:05;7.57;;;4.17;;
13309;SDS011;6723;48.256;16.402;2023-05-29T06:35:31;6.47;;;3.87;;
13309;SDS011;6723;48.256;16.402;2023-05-29T06:37:57;4.80;;;4.03;;
13309;SDS011;6723;48.256;16.402;2023-05-29T06:40:22;6.57;;;4.27;;
13309;SDS011;6723;48.256;16.402;2023-05-29T06:42:48;9.47;;;3.97;;
13309;SDS011;6723;48.256;16.402;2023-05-29T06:45:15;5.97;;;4.17;;
13309;SDS011;6723;48.256;16.402;2023-05-29T06:47:47;9.00;;;5.20;;
13309;SDS011;6723;48.256;16.402;2023-05-29T06:50:13;13.60;;;5.20;;
13309;SDS011;6723;48.256;16.402;2023-05-29T06:52:39;6.10;;;4.27;;
13309;SDS011;6723;48.256;16.402;2023-05-29T06:55:05;5.17;;;4.20;;
13309;SDS011;6723;48.256;16.402;2023-05-29T07:00:34;7.80;;;4.50;;
13309;SDS011;6723;48.256;16.402;2023-05-29T07:03:06;8.60;;;4.07;;
13309;SDS011;6723;48.256;16.402;2023-05-29T07:05:44;7.33;;;3.70;;
13309;SDS011;6723;48.256;16.402;2023-05-29T07:08:10;4.97;;;4.07;;
13309;SDS011;6723;48.256;16.402;2023-05-29T07:10:35;8.00;;;3.90;;
13309;SDS011;6723;48.256;16.402;2023-05-29T07:13:01;5.47;;;4.00;;
13309;SDS011;6723;48.256;16.402;2023-05-29T07:15:27;7.90;;;5.70;;
13309;SDS011;6723;48.256;16.402;2023-05-29T07:17:52;8.77;;;3.90;;
13309;SDS011;6723;48.256;16.402;2023-05-29T07:20:18;5.63;;;3.90;;
13309;SDS011;6723;48.256;16.402;2023-05-29T07:22:45;6.37;;;4.17;;
13309;SDS011;6723;48.256;16.402;2023-05-29T07:25:11;4.60;;;3.93;;
13309;SDS011;6723;48.256;16.402;2023-05-29T07:27:37;5.87;;;4.40;;
13309;SDS011;6723;48.256;16.402;2023-05-29T07:30:03;5.53;;;4.10;;
13309;SDS011;6723;48.256;16.402;2023-05-29T07:32:30;6.07;;;4.00;;
13309;SDS011;6723;48.256;16.402;2023-05-29T07:34:56;5.90;;;3.77;;
13309;SDS011;6723;48.256;16.402;2023-05-29T07:37:22;7.80;;;3.53;;
13309;SDS011;6723;48.256;16.402;2023-05-29T07:39:48;5.87;;;4.00;;
13309;SDS011;6723;48.256;16.402;2023-05-29T07:42:14;6.53;;;3.40;;
13309;SDS011;6723;48.256;16.402;2023-05-29T07:44:39;7.47;;;3.60;;
13309;SDS011;6723;48.256;16.402;2023-05-29T07:47:11;5.87;;;3.57;;
13309;SDS011;6723;48.256;16.402;2023-05-29T07:49:36;6.77;;;4.00;;
13309;SDS011;6723;48.256;16.402;2023-05-29T07:52:02;5.57;;;3.77;;
13309;SDS011;6723;48.256;16.402;2023-05-29T07:54:30;6.37;;;4.00;;
13309;SDS011;6723;48.256;16.402;2023-05-29T07:56:59;5.60;;;3.53;;
13309;SDS011;6723;48.256;16.402;2023-05-29T07:59:27;7.70;;;3.60;;
13309;SDS011;6723;48.256;16.402;2023-05-29T08:01:54;4.73;;;3.57;;
13309;SDS011;6723;48.256;16.402;2023-05-29T08:04:23;6.80;;;3.40;;
13309;SDS011;6723;48.256;16.402;2023-05-29T08:06:50;5.40;;;3.30;;
13309;SDS011;6723;48.256;16.402;2023-05-29T08:09:16;4.83;;;3.60;;
13309;SDS011;6723;48.256;16.402;2023-05-29T08:11:42;8.40;;;3.37;;
13309;SDS011;6723;48.256;16.402;2023-05-29T08:14:10;5.60;;;3.20;;
13309;SDS011;6723;48.256;16.402;2023-05-29T08:16:37;5.00;;;3.20;;
13309;SDS011;6723;48.256;16.402;2023-05-29T08:19:03;6.17;;;3.17;;
13309;SDS011;6723;48.256;16.402;2023-05-29T08:21:29;6.10;;;3.77;;
13309;SDS011;6723;48.256;16.402;2023-05-29T08:23:57;4.47;;;3.20;;
13309;SDS011;6723;48.256;16.402;2023-05-29T08:26:23;4.93;;;3.70;;
13309;SDS011;6723;48.256;16.402;2023-05-29T08:28:49;4.63;;;3.43;;
13309;SDS011;6723;48.256;16.402;2023-05-29T08:31:15;5.93;;;3.70;;
13309;SDS011;6723;48.256;16.402;2023-05-29T08:33:41;5.00;;;3.63;;
13309;SDS011;6723;48.256;16.402;2023-05-29T08:36:07;6.23;;;3.53;;
13309;SDS011;6723;48.256;16.402;2023-05-29T08:38:34;6.30;;;4.33;;
13309;SDS011;6723;48.256;16.402;2023-05-29T08:41:01;10.32;;;4.03;;
13309;SDS011;6723;48.256;16.402;2023-05-29T08:43:31;5.03;;;3.30;;
13309;SDS011;6723;48.256;16.402;2023-05-29T08:46:01;6.07;;;3.33;;
13309;SDS011;6723;48.256;16.402;2023-05-29T08:48:28;5.18;;;3.83;;
13309;SDS011;6723;48.256;16.402;2023-05-29T08:50:56;4.90;;;3.60;;
13309;SDS011;6723;48.256;16.402;2023-05-29T08:53:24;4.70;;;3.57;;
13309;SDS011;6723;48.256;16.402;2023-05-29T08:55:51;6.37;;;3.47;;
13309;SDS011;6723;48.256;16.402;2023-05-29T08:58:18;4.97;;;3.30;;
13309;SDS011;6723;48.256;16.402;2023-05-29T09:00:48;6.68;;;3.33;;
13309;SDS011;6723;48.256;16.402;2023-05-29T09:03:15;5.78;;;3.30;;
13309;SDS011;6723;48.256;16.402;2023-05-29T09:05:43;5.05;;;3.35;;
13309;SDS011;6723;48.256;16.402;2023-05-29T09:08:09;5.15;;;3.60;;
13309;SDS011;6723;48.256;16.402;2023-05-29T09:10:43;3.95;;;3.42;;
13309;SDS011;6723;48.256;16.402;2023-05-29T09:13:10;5.40;;;3.30;;
13309;SDS011;6723;48.256;16.402;2023-05-29T09:15:39;5.03;;;2.72;;
13309;SDS011;6723;48.256;16.402;2023-05-29T09:18:08;3.78;;;3.20;;
13309;SDS011;6723;48.256;16.402;2023-05-29T09:20:34;3.42;;;3.00;;
13309;SDS011;6723;48.256;16.402;2023-05-29T09:28:00;3.88;;;2.70;;
13309;SDS011;6723;48.256;16.402;2023-05-29T09:30:32;6.85;;;3.35;;
13309;SDS011;6723;48.256;16.402;2023-05-29T09:33:14;4.57;;;3.05;;
13309;SDS011;6723;48.256;16.402;2023-05-29T09:35:42;6.38;;;2.80;;
13309;SDS011;6723;48.256;16.402;2023-05-29T09:38:10;3.95;;;2.40;;
13309;SDS011;6723;48.256;16.402;2023-05-29T09:40:38;7.93;;;2.80;;
13309;SDS011;6723;48.256;16.402;2023-05-29T09:43:15;3.80;;;2.70;;
13309;SDS011;6723;48.256;16.402;2023-05-29T09:45:46;3.60;;;2.58;;
13309;SDS011;6723;48.256;16.402;2023-05-29T09:50:40;3.55;;;2.42;;
13309;SDS011;6723;48.256;16.402;2023-05-29T09:55:59;4.88;;;2.25;;
13309;SDS011;6723;48.256;16.402;2023-05-29T09:58:26;5.22;;;2.42;;
13309;SDS011;6723;48.256;16.402;2023-05-29T10:00:53;3.22;;;2.35;;
13309;SDS011;6723;48.256;16.402;2023-05-29T10:03:19;5.43;;;2.35;;
13309;SDS011;6723;48.256;16.402;2023-05-29T10:05:47;5.63;;;3.05;;
13309;SDS011;6723;48.256;16.402;2023-05-29T10:08:19;4.25;;;3.10;;
13309;SDS011;6723;48.256;16.402;2023-05-29T10:10:46;3.55;;;3.20;;
13309;SDS011;6723;48.256;16.402;2023-05-29T10:13:16;5.18;;;2.85;;
13309;SDS011;6723;48.256;16.402;2023-05-29T10:15:44;4.22;;;2.95;;
13309;SDS011;6723;48.256;16.402;2023-05-29T10:18:24;3.83;;;2.70;;
13309;SDS011;6723;48.256;16.402;2023-05-29T10:20:58;4.90;;;3.10;;
13309;SDS011;6723;48.256;16.402;2023-05-29T10:23:29;4.18;;;2.75;;
13309;SDS011;6723;48.256;16.402;2023-05-29T10:25:57;5.40;;;3.13;;
13309;SDS011;6723;48.256;16.402;2023-05-29T10:28:39;2.92;;;2.47;;
13309;SDS011;6723;48.256;16.402;2023-05-29T10:31:09;4.22;;;3.10;;
13309;SDS011;6723;48.256;16.402;2023-05-29T10:39:21;4.18;;;2.95;;
13309;SDS011;6723;48.256;16.402;2023-05-29T10:41:47;6.78;;;3.40;;
13309;SDS011;6723;48.256;16.402;2023-05-29T10:49:25;3.13;;;2.67;;
13309;SDS011;6723;48.256;16.402;2023-05-29T10:51:51;6.30;;;3.13;;
13309;SDS011;6723;48.256;16.402;2023-05-29T10:54:21;4.03;;;2.72;;
13309;SDS011;6723;48.256;16.402;2023-05-29T10:56:52;4.38;;;2.85;;
13309;SDS011;6723;48.256;16.402;2023-05-29T10:59:26;3.45;;;2.88;;
13309;SDS011;6723;48.256;16.402;2023-05-29T11:01:53;3.85;;;2.75;;
13309;SDS011;6723;48.256;16.402;2023-05-29T11:06:46;4.22;;;2.50;;
13309;SDS011;6723;48.256;16.402;2023-05-29T11:20:00;3.70;;;2.60;;
13309;SDS011;6723;48.256;16.402;2023-05-29T11:22:34;4.03;;;2.60;;
13309;SDS011;6723;48.256;16.402;2023-05-29T11:25:27;4.82;;;2.53;;
13309;SDS011;6723;48.256;16.402;2023-05-29T11:27:53;4.38;;;3.28;;
13309;SDS011;6723;48.256;16.402;2023-05-29T11:30:21;4.03;;;2.97;;
13309;SDS011;6723;48.256;16.402;2023-05-29T11:32:47;5.00;;;2.50;;
13309;SDS011;6723;48.256;16.402;2023-05-29T11:35:15;3.88;;;3.08;;
13309;SDS011;6723;48.256;16.402;2023-05-29T11:37:42;5.60;;;3.40;;
13309;SDS011;6723;48.256;16.402;2023-05-29T11:40:11;6.15;;;3.08;;
13309;SDS011;6723;48.256;16.402;2023-05-29T11:42:41;12.27;;;5.65;;
13309;SDS011;6723;48.256;16.402;2023-05-29T11:47:53;5.78;;;3.88;;
13309;SDS011;6723;48.256;16.402;2023-05-29T11:50:21;5.20;;;3.35;;
13309;SDS011;6723;48.256;16.402;2023-05-29T11:52:48;10.55;;;4.40;;
13309;SDS011;6723;48.256;16.402;2023-05-29T11:55:13;6.03;;;3.35;;
13309;SDS011;6723;48.256;16.402;2023-05-29T11:57:39;4.25;;;3.20;;
13309;SDS011;6723;48.256;16.402;2023-05-29T12:00:06;9.70;;;3.60;;
13309;SDS011;6723;48.256;16.402;2023-05-29T12:02:33;5.72;;;3.28;;
13309;SDS011;6723;48.256;16.402;2023-05-29T12:05:01;5.90;;;3.10;;
13309;SDS011;6723;48.256;16.402;2023-05-29T12:07:28;6.13;;;3.20;;
13309;SDS011;6723;48.256;16.402;2023-05-29T12:09:54;6.85;;;3.42;;
13309;SDS011;6723;48.256;16.402;2023-05-29T12:12:23;4.13;;;3.17;;
13309;SDS011;6723;48.256;16.402;2023-05-29T12:14:52;4.28;;;2.85;;
13309;SDS011;6723;48.256;16.402;2023-05-29T12:17:19;6.65;;;3.25;;
13309;SDS011;6723;48.256;16.402;2023-05-29T12:19:46;4.07;;;3.33;;
13309;SDS011;6723;48.256;16.402;2023-05-29T12:22:11;4.65;;;3.25;;
13309;SDS011;6723;48.256;16.402;2023-05-29T12:24:37;4.82;;;3.63;;
13309;SDS011;6723;48.256;16.402;2023-05-29T12:27:03;4.40;;;3.60;;
13309;SDS011;6723;48.256;16.402;2023-05-29T12:29:33;3.78;;;3.38;;
13309;SDS011;6723;48.256;16.402;2023-05-29T12:31:59;4.80;;;3.60;;
13309;SDS011;6723;48.256;16.402;2023-05-29T12:34:24;5.40;;;3.90;;
13309;SDS011;6723;48.256;16.402;2023-05-29T12:36:51;6.05;;;4.50;;
13309;SDS011;6723;48.256;16.402;2023-05-29T12:39:16;4.93;;;4.10;;
13309;SDS011;6723;48.256;16.402;2023-05-29T12:41:43;6.20;;;4.25;;
13309;SDS011;6723;48.256;16.402;2023-05-29T12:44:09;4.63;;;3.80;;
13309;SDS011;6723;48.256;16.402;2023-05-29T12:46:35;6.22;;;3.90;;
13309;SDS011;6723;48.256;16.402;2023-05-29T12:49:11;6.17;;;4.23;;
13309;SDS011;6723;48.256;16.402;2023-05-29T12:51:41;7.45;;;4.20;;
13309;SDS011;6723;48.256;16.402;2023-05-29T12:54:09;5.80;;;4.30;;
13309;SDS011;6723;48.256;16.402;2023-05-29T12:56:36;7.57;;;3.88;;
13309;SDS011;6723;48.256;16.402;2023-05-29T12:59:06;4.55;;;3.63;;
13309;SDS011;6723;48.256;16.402;2023-05-29T13:01:33;6.88;;;3.70;;
13309;SDS011;6723;48.256;16.402;2023-05-29T13:03:59;5.32;;;3.40;;
13309;SDS011;6723;48.256;16.402;2023-05-29T13:06:39;7.43;;;4.10;;
13309;SDS011;6723;48.256;16.402;2023-05-29T13:09:05;5.70;;;3.50;;
13309;SDS011;6723;48.256;16.402;2023-05-29T13:11:33;5.07;;;3.90;;
13309;SDS011;6723;48.256;16.402;2023-05-29T13:13:58;4.53;;;3.70;;
13309;SDS011;6723;48.256;16.402;2023-05-29T13:16:25;4.53;;;3.23;;
13309;SDS011;6723;48.256;16.402;2023-05-29T13:18:50;5.17;;;3.50;;
13309;SDS011;6723;48.256;16.402;2023-05-29T13:23:45;6.13;;;3.70;;
13309;SDS011;6723;48.256;16.402;2023-05-29T13:26:10;8.13;;;3.50;;
13309;SDS011;6723;48.256;16.402;2023-05-29T13:28:36;5.63;;;3.40;;
13309;SDS011;6723;48.256;16.402;2023-05-29T13:31:02;5.57;;;3.37;;
13309;SDS011;6723;48.256;16.402;2023-05-29T13:33:30;3.43;;;3.00;;
13309;SDS011;6723;48.256;16.402;2023-05-29T13:35:56;5.03;;;3.20;;
13309;SDS011;6723;48.256;16.402;2023-05-29T13:38:40;4.17;;;2.90;;
13309;SDS011;6723;48.256;16.402;2023-05-29T13:41:21;8.43;;;4.07;;
13309;SDS011;6723;48.256;16.402;2023-05-29T13:46:17;6.63;;;3.60;;
13309;SDS011;6723;48.256;16.402;2023-05-29T13:48:43;8.40;;;3.60;;
13309;SDS011;6723;48.256;16.402;2023-05-29T13:51:08;9.97;;;3.97;;
13309;SDS011;6723;48.256;16.402;2023-05-29T13:53:37;5.00;;;3.37;;
13309;SDS011;6723;48.256;16.402;2023-05-29T13:56:02;7.47;;;3.60;;
13309;SDS011;6723;48.256;16.402;2023-05-29T13:58:28;5.80;;;3.73;;
13309;SDS011;6723;48.256;16.402;2023-05-29T14:00:54;6.03;;;3.30;;
13309;SDS011;6723;48.256;16.402;2023-05-29T14:03:21;4.07;;;3.67;;
13309;SDS011;6723;48.256;16.402;2023-05-29T14:05:53;4.37;;;3.40;;
13309;SDS011;6723;48.256;16.402;2023-05-29T14:08:20;5.70;;;3.60;;
13309;SDS011;6723;48.256;16.402;2023-05-29T14:10:46;6.00;;;3.53;;
13309;SDS011;6723;48.256;16.402;2023-05-29T14:13:12;4.23;;;3.30;;
13309;SDS011;6723;48.256;16.402;2023-05-29T14:15:38;5.37;;;3.87;;
13309;SDS011;6723;48.256;16.402;2023-05-29T14:18:03;7.60;;;3.83;;
13309;SDS011;6723;48.256;16.402;2023-05-29T14:20:30;7.13;;;4.00;;
13309;SDS011;6723;48.256;16.402;2023-05-29T14:22:56;6.23;;;4.07;;
13309;SDS011;6723;48.256;16.402;2023-05-29T14:25:21;6.90;;;4.93;;
13309;SDS011;6723;48.256;16.402;2023-05-29T14:27:47;10.10;;;7.30;;
13309;SDS011;6723;48.256;16.402;2023-05-29T14:30:13;10.07;;;5.47;;
13309;SDS011;6723;48.256;16.402;2023-05-29T14:32:38;5.70;;;3.80;;
13309;SDS011;6723;48.256;16.402;2023-05-29T14:35:07;5.80;;;3.90;;
13309;SDS011;6723;48.256;16.402;2023-05-29T14:37:33;6.63;;;4.00;;
13309;SDS011;6723;48.256;16.402;2023-05-29T14:39:58;5.40;;;3.90;;
13309;SDS011;6723;48.256;16.402;2023-05-29T14:42:24;8.10;;;4.13;;
13309;SDS011;6723;48.256;16.402;2023-05-29T14:44:50;5.37;;;3.50;;
13309;SDS011;6723;48.256;16.402;2023-05-29T14:47:15;4.97;;;3.57;;
13309;SDS011;6723;48.256;16.402;2023-05-29T14:49:43;4.87;;;3.63;;
13309;SDS011;6723;48.256;16.402;2023-05-29T14:52:09;4.87;;;3.40;;
13309;SDS011;6723;48.256;16.402;2023-05-29T14:54:35;7.53;;;4.20;;
13309;SDS011;6723;48.256;16.402;2023-05-29T14:57:15;6.30;;;3.97;;
13309;SDS011;6723;48.256;16.402;2023-05-29T14:59:41;5.30;;;4.27;;
13309;SDS011;6723;48.256;16.402;2023-05-29T15:02:07;8.70;;;4.50;;
13309;SDS011;6723;48.256;16.402;2023-05-29T15:04:34;12.47;;;5.53;;
13309;SDS011;6723;48.256;16.402;2023-05-29T15:07:01;10.47;;;5.30;;
13309;SDS011;6723;48.256;16.402;2023-05-29T15:09:27;8.83;;;5.17;;
13309;SDS011;6723;48.256;16.402;2023-05-29T15:11:54;7.77;;;5.37;;
13309;SDS011;6723;48.256;16.402;2023-05-29T15:14:19;6.83;;;5.10;;
13309;SDS011;6723;48.256;16.402;2023-05-29T15:16:45;7.70;;;4.80;;
13309;SDS011;6723;48.256;16.402;2023-05-29T15:19:11;6.27;;;5.03;;
13309;SDS011;6723;48.256;16.402;2023-05-29T15:21:36;6.03;;;4.93;;
13309;SDS011;6723;48.256;16.402;2023-05-29T15:24:03;8.20;;;5.70;;
13309;SDS011;6723;48.256;16.402;2023-05-29T15:26:29;6.13;;;4.83;;
13309;SDS011;6723;48.256;16.402;2023-05-29T15:28:55;5.80;;;3.93;;
13309;SDS011;6723;48.256;16.402;2023-05-29T15:31:21;9.50;;;5.07;;
13309;SDS011;6723;48.256;16.402;2023-05-29T15:34:03;8.10;;;4.23;;
13309;SDS011;6723;48.256;16.402;2023-05-29T15:36:31;7.63;;;3.67;;
13309;SDS011;6723;48.256;16.402;2023-05-29T15:38:57;6.23;;;4.17;;
13309;SDS011;6723;48.256;16.402;2023-05-29T15:41:23;6.50;;;3.60;;
13309;SDS011;6723;48.256;16.402;2023-05-29T15:43:57;6.17;;;4.10;;
13309;SDS011;6723;48.256;16.402;2023-05-29T15:46:25;7.63;;;3.80;;
13309;SDS011;6723;48.256;16.402;2023-05-29T15:48:52;5.97;;;4.30;;